sensor_id;sensor_type;location;lat;lon;timestamp;P1;durP1;ratioP1;P2;durP2;ratioP2
52764;SDS011;38650;44.536;18.664;2024-02-21T00:02:08;33.58;;;26.88;;
52764;SDS011;38650;44.536;18.664;2024-02-21T00:04:34;36.13;;;28.65;;
52764;SDS011;38650;44.536;18.664;2024-02-21T00:07:01;30.13;;;25.95;;
52764;SDS011;38650;44.536;18.664;2024-02-21T00:09:27;25.80;;;22.98;;
52764;SDS011;38650;44.536;18.664;2024-02-21T00:11:52;34.22;;;25.75;;
52764;SDS011;38650;44.536;18.664;2024-02-21T00:14:18;34.67;;;29.58;;
52764;SDS011;38650;44.536;18.664;2024-02-21T00:16:44;34.63;;;29.23;;
52764;SDS011;38650;44.536;18.664;2024-02-21T00:19:09;32.08;;;26.83;;
52764;SDS011;38650;44.536;18.664;2024-02-21T00:21:35;32.60;;;26.75;;
52764;SDS011;38650;44.536;18.664;2024-02-21T00:24:01;39.05;;;32.40;;
52764;SDS011;38650;44.536;18.664;2024-02-21T00:26:26;37.78;;;28.92;;
52764;SDS011;38650;44.536;18.664;2024-02-21T00:28:52;29.83;;;25.58;;
52764;SDS011;38650;44.536;18.664;2024-02-21T00:31:18;32.63;;;27.45;;
52764;SDS011;38650;44.536;18.664;2024-02-21T00:33:44;31.65;;;26.10;;
52764;SDS011;38650;44.536;18.664;2024-02-21T00:36:09;32.35;;;26.85;;
52764;SDS011;38650;44.536;18.664;2024-02-21T00:38:35;34.63;;;27.65;;
52764;SDS011;38650;44.536;18.664;2024-02-21T00:41:00;37.80;;;30.40;;
52764;SDS011;38650;44.536;18.664;2024-02-21T00:43:26;34.30;;;28.95;;
52764;SDS011;38650;44.536;18.664;2024-02-21T00:45:52;32.03;;;26.25;;
52764;SDS011;38650;44.536;18.664;2024-02-21T00:48:17;28.25;;;25.23;;
52764;SDS011;38650;44.536;18.664;2024-02-21T00:50:44;29.88;;;25.20;;
52764;SDS011;38650;44.536;18.664;2024-02-21T00:53:09;36.60;;;29.33;;
52764;SDS011;38650;44.536;18.664;2024-02-21T00:55:35;36.63;;;30.15;;
52764;SDS011;38650;44.536;18.664;2024-02-21T00:58:01;28.55;;;24.08;;
52764;SDS011;38650;44.536;18.664;2024-02-21T01:00:26;31.38;;;25.95;;
52764;SDS011;38650;44.536;18.664;2024-02-21T01:02:52;28.65;;;24.17;;
52764;SDS011;38650;44.536;18.664;2024-02-21T01:05:18;28.98;;;23.88;;
52764;SDS011;38650;44.536;18.664;2024-02-21T01:07:45;27.63;;;23.00;;
52764;SDS011;38650;44.536;18.664;2024-02-21T01:10:10;28.00;;;22.73;;
52764;SDS011;38650;44.536;18.664;2024-02-21T01:12:36;23.70;;;20.50;;
52764;SDS011;38650;44.536;18.664;2024-02-21T01:15:02;21.02;;;18.40;;
52764;SDS011;38650;44.536;18.664;2024-02-21T01:17:29;25.77;;;21.52;;
52764;SDS011;38650;44.536;18.664;2024-02-21T01:19:55;27.55;;;23.75;;
52764;SDS011;38650;44.536;18.664;2024-02-21T01:22:20;24.33;;;21.52;;
52764;SDS011;38650;44.536;18.664;2024-02-21T01:24:46;22.77;;;20.17;;
52764;SDS011;38650;44.536;18.664;2024-02-21T01:27:12;20.70;;;18.60;;
52764;SDS011;38650;44.536;18.664;2024-02-21T01:29:37;19.23;;;17.02;;
52764;SDS011;38650;44.536;18.664;2024-02-21T01:32:03;17.85;;;15.30;;
52764;SDS011;38650;44.536;18.664;2024-02-21T01:34:29;15.15;;;13.55;;
52764;SDS011;38650;44.536;18.664;2024-02-21T01:36:55;16.65;;;14.20;;
52764;SDS011;38650;44.536;18.664;2024-02-21T01:39:20;16.55;;;14.60;;
52764;SDS011;38650;44.536;18.664;2024-02-21T01:41:46;16.05;;;14.40;;
52764;SDS011;38650;44.536;18.664;2024-02-21T01:44:12;18.77;;;15.48;;
52764;SDS011;38650;44.536;18.664;2024-02-21T01:46:38;14.10;;;12.60;;
52764;SDS011;38650;44.536;18.664;2024-02-21T01:49:04;18.50;;;14.73;;
52764;SDS011;38650;44.536;18.664;2024-02-21T01:51:30;26.33;;;20.70;;
52764;SDS011;38650;44.536;18.664;2024-02-21T01:53:56;27.48;;;21.55;;
52764;SDS011;38650;44.536;18.664;2024-02-21T01:56:23;22.27;;;19.23;;
52764;SDS011;38650;44.536;18.664;2024-02-21T01:58:50;18.55;;;16.15;;
52764;SDS011;38650;44.536;18.664;2024-02-21T02:01:16;16.95;;;15.07;;
52764;SDS011;38650;44.536;18.664;2024-02-21T02:03:42;18.27;;;15.65;;
52764;SDS011;38650;44.536;18.664;2024-02-21T02:06:10;17.05;;;13.82;;
52764;SDS011;38650;44.536;18.664;2024-02-21T02:08:35;13.93;;;12.25;;
52764;SDS011;38650;44.536;18.664;2024-02-21T02:11:01;18.30;;;15.02;;
52764;SDS011;38650;44.536;18.664;2024-02-21T02:13:27;18.88;;;16.85;;
52764;SDS011;38650;44.536;18.664;2024-02-21T02:15:54;20.17;;;17.27;;
52764;SDS011;38650;44.536;18.664;2024-02-21T02:18:20;17.40;;;15.40;;
52764;SDS011;38650;44.536;18.664;2024-02-21T02:20:46;16.70;;;14.95;;
52764;SDS011;38650;44.536;18.664;2024-02-21T02:23:17;15.70;;;13.70;;
52764;SDS011;38650;44.536;18.664;2024-02-21T02:25:47;18.70;;;15.55;;
52764;SDS011;38650;44.536;18.664;2024-02-21T02:28:14;20.08;;;16.95;;
52764;SDS011;38650;44.536;18.664;2024-02-21T02:30:41;21.60;;;17.52;;
52764;SDS011;38650;44.536;18.664;2024-02-21T02:33:06;22.80;;;17.77;;
52764;SDS011;38650;44.536;18.664;2024-02-21T02:35:32;18.77;;;15.65;;
52764;SDS011;38650;44.536;18.664;2024-02-21T02:38:00;18.98;;;14.73;;
52764;SDS011;38650;44.536;18.664;2024-02-21T02:40:26;18.00;;;15.43;;
52764;SDS011;38650;44.536;18.664;2024-02-21T02:42:51;18.52;;;15.25;;
52764;SDS011;38650;44.536;18.664;2024-02-21T02:45:20;15.98;;;13.77;;
52764;SDS011;38650;44.536;18.664;2024-02-21T02:47:47;16.13;;;13.35;;
52764;SDS011;38650;44.536;18.664;2024-02-21T02:50:13;22.15;;;17.60;;
52764;SDS011;38650;44.536;18.664;2024-02-21T02:52:39;23.00;;;19.75;;
52764;SDS011;38650;44.536;18.664;2024-02-21T02:55:05;22.15;;;19.75;;
52764;SDS011;38650;44.536;18.664;2024-02-21T02:57:31;23.65;;;20.23;;
52764;SDS011;38650;44.536;18.664;2024-02-21T02:59:57;23.33;;;20.52;;
52764;SDS011;38650;44.536;18.664;2024-02-21T03:02:23;21.90;;;18.60;;
52764;SDS011;38650;44.536;18.664;2024-02-21T03:04:49;19.95;;;16.80;;
52764;SDS011;38650;44.536;18.664;2024-02-21T03:07:15;20.90;;;18.75;;
52764;SDS011;38650;44.536;18.664;2024-02-21T03:09:41;21.05;;;18.00;;
52764;SDS011;38650;44.536;18.664;2024-02-21T03:12:08;19.25;;;17.05;;
52764;SDS011;38650;44.536;18.664;2024-02-21T03:14:34;18.90;;;16.20;;
52764;SDS011;38650;44.536;18.664;2024-02-21T03:17:00;22.33;;;19.63;;
52764;SDS011;38650;44.536;18.664;2024-02-21T03:19:27;25.65;;;21.02;;
52764;SDS011;38650;44.536;18.664;2024-02-21T03:21:53;22.70;;;20.10;;
52764;SDS011;38650;44.536;18.664;2024-02-21T03:24:19;24.05;;;21.27;;
52764;SDS011;38650;44.536;18.664;2024-02-21T03:26:45;26.70;;;23.77;;
52764;SDS011;38650;44.536;18.664;2024-02-21T03:29:13;31.63;;;27.30;;
52764;SDS011;38650;44.536;18.664;2024-02-21T03:31:39;27.63;;;24.55;;
52764;SDS011;38650;44.536;18.664;2024-02-21T03:34:05;27.17;;;23.75;;
52764;SDS011;38650;44.536;18.664;2024-02-21T03:36:31;26.65;;;23.83;;
52764;SDS011;38650;44.536;18.664;2024-02-21T03:38:56;25.80;;;22.88;;
52764;SDS011;38650;44.536;18.664;2024-02-21T03:41:22;27.55;;;23.00;;
52764;SDS011;38650;44.536;18.664;2024-02-21T03:43:48;24.83;;;21.83;;
52764;SDS011;38650;44.536;18.664;2024-02-21T03:46:14;28.30;;;25.05;;
52764;SDS011;38650;44.536;18.664;2024-02-21T03:48:40;32.00;;;27.45;;
52764;SDS011;38650;44.536;18.664;2024-02-21T03:51:06;27.83;;;24.55;;
52764;SDS011;38650;44.536;18.664;2024-02-21T03:53:32;25.92;;;22.63;;
52764;SDS011;38650;44.536;18.664;2024-02-21T03:56:00;28.85;;;24.73;;
52764;SDS011;38650;44.536;18.664;2024-02-21T03:58:28;34.03;;;29.88;;
52764;SDS011;38650;44.536;18.664;2024-02-21T04:00:59;40.40;;;34.35;;
52764;SDS011;38650;44.536;18.664;2024-02-21T04:03:26;46.83;;;41.67;;
52764;SDS011;38650;44.536;18.664;2024-02-21T04:05:52;63.60;;;54.50;;
52764;SDS011;38650;44.536;18.664;2024-02-21T04:08:18;44.22;;;39.63;;
52764;SDS011;38650;44.536;18.664;2024-02-21T04:10:43;40.55;;;36.15;;
52764;SDS011;38650;44.536;18.664;2024-02-21T04:13:09;39.97;;;35.65;;
52764;SDS011;38650;44.536;18.664;2024-02-21T04:15:35;34.65;;;30.90;;
52764;SDS011;38650;44.536;18.664;2024-02-21T04:18:01;36.10;;;30.52;;
52764;SDS011;38650;44.536;18.664;2024-02-21T04:20:30;32.97;;;28.52;;
52764;SDS011;38650;44.536;18.664;2024-02-21T04:22:56;29.83;;;26.73;;
52764;SDS011;38650;44.536;18.664;2024-02-21T04:25:22;30.30;;;25.88;;
52764;SDS011;38650;44.536;18.664;2024-02-21T04:27:47;31.45;;;27.42;;
52764;SDS011;38650;44.536;18.664;2024-02-21T04:30:13;30.63;;;26.10;;
52764;SDS011;38650;44.536;18.664;2024-02-21T04:32:39;27.15;;;22.15;;
52764;SDS011;38650;44.536;18.664;2024-02-21T04:35:05;26.08;;;21.92;;
52764;SDS011;38650;44.536;18.664;2024-02-21T04:37:32;24.60;;;20.23;;
52764;SDS011;38650;44.536;18.664;2024-02-21T04:39:57;21.40;;;19.05;;
52764;SDS011;38650;44.536;18.664;2024-02-21T04:42:23;22.08;;;19.23;;
52764;SDS011;38650;44.536;18.664;2024-02-21T04:44:49;20.35;;;17.92;;
52764;SDS011;38650;44.536;18.664;2024-02-21T04:47:14;22.38;;;20.08;;
52764;SDS011;38650;44.536;18.664;2024-02-21T04:49:40;25.30;;;22.42;;
52764;SDS011;38650;44.536;18.664;2024-02-21T04:52:06;23.40;;;20.92;;
52764;SDS011;38650;44.536;18.664;2024-02-21T04:54:32;29.85;;;25.70;;
52764;SDS011;38650;44.536;18.664;2024-02-21T04:57:00;25.23;;;21.20;;
52764;SDS011;38650;44.536;18.664;2024-02-21T04:59:25;25.00;;;21.95;;
52764;SDS011;38650;44.536;18.664;2024-02-21T05:01:51;25.65;;;22.83;;
52764;SDS011;38650;44.536;18.664;2024-02-21T05:04:17;28.15;;;24.30;;
52764;SDS011;38650;44.536;18.664;2024-02-21T05:06:43;28.05;;;22.95;;
52764;SDS011;38650;44.536;18.664;2024-02-21T05:09:09;26.20;;;22.88;;
52764;SDS011;38650;44.536;18.664;2024-02-21T05:11:35;24.42;;;21.75;;
52764;SDS011;38650;44.536;18.664;2024-02-21T05:14:01;24.73;;;22.05;;
52764;SDS011;38650;44.536;18.664;2024-02-21T05:16:28;23.95;;;20.88;;
52764;SDS011;38650;44.536;18.664;2024-02-21T05:18:54;34.83;;;27.63;;
52764;SDS011;38650;44.536;18.664;2024-02-21T05:21:21;36.05;;;31.33;;
52764;SDS011;38650;44.536;18.664;2024-02-21T05:23:48;24.88;;;22.17;;
52764;SDS011;38650;44.536;18.664;2024-02-21T05:26:24;26.02;;;23.23;;
52764;SDS011;38650;44.536;18.664;2024-02-21T05:28:50;23.60;;;20.67;;
52764;SDS011;38650;44.536;18.664;2024-02-21T05:31:20;28.23;;;24.33;;
52764;SDS011;38650;44.536;18.664;2024-02-21T05:33:46;28.83;;;25.10;;
52764;SDS011;38650;44.536;18.664;2024-02-21T05:36:12;31.85;;;27.55;;
52764;SDS011;38650;44.536;18.664;2024-02-21T05:38:38;26.15;;;23.33;;
52764;SDS011;38650;44.536;18.664;2024-02-21T05:41:04;26.63;;;22.90;;
52764;SDS011;38650;44.536;18.664;2024-02-21T05:43:30;24.33;;;21.50;;
52764;SDS011;38650;44.536;18.664;2024-02-21T05:45:56;22.73;;;20.42;;
52764;SDS011;38650;44.536;18.664;2024-02-21T05:48:22;22.90;;;20.60;;
52764;SDS011;38650;44.536;18.664;2024-02-21T05:50:48;21.42;;;19.13;;
52764;SDS011;38650;44.536;18.664;2024-02-21T05:53:14;21.42;;;19.23;;
52764;SDS011;38650;44.536;18.664;2024-02-21T05:55:40;32.03;;;26.60;;
52764;SDS011;38650;44.536;18.664;2024-02-21T05:58:06;25.02;;;22.30;;
52764;SDS011;38650;44.536;18.664;2024-02-21T06:00:32;33.28;;;27.92;;
52764;SDS011;38650;44.536;18.664;2024-02-21T06:02:58;28.65;;;25.33;;
52764;SDS011;38650;44.536;18.664;2024-02-21T06:05:24;33.80;;;30.17;;
52764;SDS011;38650;44.536;18.664;2024-02-21T06:07:50;35.95;;;32.25;;
52764;SDS011;38650;44.536;18.664;2024-02-21T06:10:15;41.22;;;36.83;;
52764;SDS011;38650;44.536;18.664;2024-02-21T06:12:41;41.35;;;37.03;;
52764;SDS011;38650;44.536;18.664;2024-02-21T06:15:07;51.88;;;45.85;;
52764;SDS011;38650;44.536;18.664;2024-02-21T06:17:33;48.22;;;41.40;;
52764;SDS011;38650;44.536;18.664;2024-02-21T06:19:59;43.45;;;38.80;;
52764;SDS011;38650;44.536;18.664;2024-02-21T06:22:24;46.00;;;39.33;;
52764;SDS011;38650;44.536;18.664;2024-02-21T06:24:50;44.72;;;38.50;;
52764;SDS011;38650;44.536;18.664;2024-02-21T06:27:16;39.25;;;34.58;;
52764;SDS011;38650;44.536;18.664;2024-02-21T06:29:42;44.33;;;36.72;;
52764;SDS011;38650;44.536;18.664;2024-02-21T06:32:08;32.97;;;29.15;;
52764;SDS011;38650;44.536;18.664;2024-02-21T06:34:33;31.90;;;28.10;;
52764;SDS011;38650;44.536;18.664;2024-02-21T06:36:59;29.27;;;26.38;;
52764;SDS011;38650;44.536;18.664;2024-02-21T06:39:25;30.83;;;27.48;;
52764;SDS011;38650;44.536;18.664;2024-02-21T06:41:51;38.38;;;30.88;;
52764;SDS011;38650;44.536;18.664;2024-02-21T06:44:18;42.50;;;34.15;;
52764;SDS011;38650;44.536;18.664;2024-02-21T06:46:44;53.40;;;42.90;;
52764;SDS011;38650;44.536;18.664;2024-02-21T06:49:10;42.97;;;36.40;;
52764;SDS011;38650;44.536;18.664;2024-02-21T06:51:41;43.08;;;35.67;;
52764;SDS011;38650;44.536;18.664;2024-02-21T06:54:09;42.15;;;35.85;;
52764;SDS011;38650;44.536;18.664;2024-02-21T06:56:36;43.50;;;35.38;;
52764;SDS011;38650;44.536;18.664;2024-02-21T06:59:02;38.70;;;32.83;;
52764;SDS011;38650;44.536;18.664;2024-02-21T07:01:28;38.40;;;33.08;;
52764;SDS011;38650;44.536;18.664;2024-02-21T07:03:57;35.72;;;31.02;;
52764;SDS011;38650;44.536;18.664;2024-02-21T07:06:23;33.00;;;28.38;;
52764;SDS011;38650;44.536;18.664;2024-02-21T07:08:48;34.13;;;28.70;;
52764;SDS011;38650;44.536;18.664;2024-02-21T07:11:14;30.15;;;26.92;;
52764;SDS011;38650;44.536;18.664;2024-02-21T07:13:40;36.28;;;28.63;;
52764;SDS011;38650;44.536;18.664;2024-02-21T07:16:06;39.03;;;32.13;;
52764;SDS011;38650;44.536;18.664;2024-02-21T07:18:32;32.75;;;27.05;;
52764;SDS011;38650;44.536;18.664;2024-02-21T07:20:57;39.58;;;33.38;;
52764;SDS011;38650;44.536;18.664;2024-02-21T07:23:23;42.95;;;35.97;;
52764;SDS011;38650;44.536;18.664;2024-02-21T07:25:49;38.35;;;33.33;;
52764;SDS011;38650;44.536;18.664;2024-02-21T07:28:15;36.58;;;32.15;;
52764;SDS011;38650;44.536;18.664;2024-02-21T07:30:42;33.50;;;29.92;;
52764;SDS011;38650;44.536;18.664;2024-02-21T07:33:08;35.47;;;30.33;;
52764;SDS011;38650;44.536;18.664;2024-02-21T07:35:34;30.58;;;27.23;;
52764;SDS011;38650;44.536;18.664;2024-02-21T07:38:05;31.33;;;26.38;;
52764;SDS011;38650;44.536;18.664;2024-02-21T07:40:32;29.20;;;25.17;;
52764;SDS011;38650;44.536;18.664;2024-02-21T07:42:58;37.20;;;33.17;;
52764;SDS011;38650;44.536;18.664;2024-02-21T07:45:23;31.73;;;28.23;;
52764;SDS011;38650;44.536;18.664;2024-02-21T07:47:49;30.75;;;25.35;;
52764;SDS011;38650;44.536;18.664;2024-02-21T07:50:15;28.17;;;23.05;;
52764;SDS011;38650;44.536;18.664;2024-02-21T07:52:59;25.70;;;21.88;;
52764;SDS011;38650;44.536;18.664;2024-02-21T07:55:25;26.45;;;21.67;;
52764;SDS011;38650;44.536;18.664;2024-02-21T07:57:51;28.67;;;24.58;;
52764;SDS011;38650;44.536;18.664;2024-02-21T08:00:17;40.08;;;30.30;;
52764;SDS011;38650;44.536;18.664;2024-02-21T08:02:48;38.85;;;28.38;;
52764;SDS011;38650;44.536;18.664;2024-02-21T08:05:14;38.58;;;30.05;;
52764;SDS011;38650;44.536;18.664;2024-02-21T08:07:40;35.25;;;27.83;;
52764;SDS011;38650;44.536;18.664;2024-02-21T08:10:06;35.70;;;27.85;;
52764;SDS011;38650;44.536;18.664;2024-02-21T08:12:33;35.30;;;26.65;;
52764;SDS011;38650;44.536;18.664;2024-02-21T08:14:59;33.10;;;26.70;;
52764;SDS011;38650;44.536;18.664;2024-02-21T08:17:25;42.33;;;32.30;;
52764;SDS011;38650;44.536;18.664;2024-02-21T08:19:51;33.92;;;27.38;;
52764;SDS011;38650;44.536;18.664;2024-02-21T08:22:16;36.88;;;29.65;;
52764;SDS011;38650;44.536;18.664;2024-02-21T08:24:42;35.22;;;28.05;;
52764;SDS011;38650;44.536;18.664;2024-02-21T08:27:08;31.00;;;25.40;;
52764;SDS011;38650;44.536;18.664;2024-02-21T08:29:33;30.65;;;25.42;;
52764;SDS011;38650;44.536;18.664;2024-02-21T08:31:59;31.92;;;25.05;;
52764;SDS011;38650;44.536;18.664;2024-02-21T08:34:25;30.08;;;23.95;;
52764;SDS011;38650;44.536;18.664;2024-02-21T08:36:51;26.65;;;21.27;;
52764;SDS011;38650;44.536;18.664;2024-02-21T08:39:17;24.88;;;20.33;;
52764;SDS011;38650;44.536;18.664;2024-02-21T08:41:43;26.52;;;20.08;;
52764;SDS011;38650;44.536;18.664;2024-02-21T08:44:08;23.42;;;18.75;;
52764;SDS011;38650;44.536;18.664;2024-02-21T08:46:34;24.10;;;19.08;;
52764;SDS011;38650;44.536;18.664;2024-02-21T08:49:00;20.00;;;16.23;;
52764;SDS011;38650;44.536;18.664;2024-02-21T08:51:28;17.83;;;15.32;;
52764;SDS011;38650;44.536;18.664;2024-02-21T08:53:54;18.63;;;15.00;;
52764;SDS011;38650;44.536;18.664;2024-02-21T08:56:20;21.77;;;17.08;;
52764;SDS011;38650;44.536;18.664;2024-02-21T08:58:46;15.85;;;14.15;;
52764;SDS011;38650;44.536;18.664;2024-02-21T09:01:12;17.88;;;15.18;;
52764;SDS011;38650;44.536;18.664;2024-02-21T09:03:38;17.85;;;15.07;;
52764;SDS011;38650;44.536;18.664;2024-02-21T09:06:04;17.20;;;15.23;;
52764;SDS011;38650;44.536;18.664;2024-02-21T09:08:31;19.02;;;15.10;;
52764;SDS011;38650;44.536;18.664;2024-02-21T09:10:57;19.75;;;15.57;;
52764;SDS011;38650;44.536;18.664;2024-02-21T09:13:23;16.05;;;13.77;;
52764;SDS011;38650;44.536;18.664;2024-02-21T09:15:49;14.10;;;12.57;;
52764;SDS011;38650;44.536;18.664;2024-02-21T09:18:15;16.40;;;12.57;;
52764;SDS011;38650;44.536;18.664;2024-02-21T09:20:44;16.27;;;13.93;;
52764;SDS011;38650;44.536;18.664;2024-02-21T09:23:10;15.40;;;12.27;;
52764;SDS011;38650;44.536;18.664;2024-02-21T09:25:36;12.07;;;10.82;;
52764;SDS011;38650;44.536;18.664;2024-02-21T09:28:02;14.55;;;10.05;;
52764;SDS011;38650;44.536;18.664;2024-02-21T09:30:28;10.50;;;9.30;;
52764;SDS011;38650;44.536;18.664;2024-02-21T09:32:55;11.57;;;10.30;;
52764;SDS011;38650;44.536;18.664;2024-02-21T09:35:35;12.00;;;9.48;;
52764;SDS011;38650;44.536;18.664;2024-02-21T09:38:01;11.07;;;9.88;;
52764;SDS011;38650;44.536;18.664;2024-02-21T09:40:43;12.23;;;10.10;;
52764;SDS011;38650;44.536;18.664;2024-02-21T09:43:18;9.50;;;7.65;;
52764;SDS011;38650;44.536;18.664;2024-02-21T09:45:47;5.53;;;5.03;;
52764;SDS011;38650;44.536;18.664;2024-02-21T09:48:19;5.05;;;4.03;;
52764;SDS011;38650;44.536;18.664;2024-02-21T09:51:09;3.60;;;3.00;;
52764;SDS011;38650;44.536;18.664;2024-02-21T09:53:40;2.35;;;2.15;;
52764;SDS011;38650;44.536;18.664;2024-02-21T09:56:10;3.08;;;2.88;;
52764;SDS011;38650;44.536;18.664;2024-02-21T09:58:46;4.13;;;3.13;;
52764;SDS011;38650;44.536;18.664;2024-02-21T10:01:13;3.50;;;3.20;;
52764;SDS011;38650;44.536;18.664;2024-02-21T10:03:39;3.35;;;3.03;;
52764;SDS011;38650;44.536;18.664;2024-02-21T10:06:04;3.20;;;2.90;;
52764;SDS011;38650;44.536;18.664;2024-02-21T10:08:30;6.25;;;5.75;;
52764;SDS011;38650;44.536;18.664;2024-02-21T10:10:56;6.65;;;6.05;;
52764;SDS011;38650;44.536;18.664;2024-02-21T10:13:25;6.43;;;5.82;;
52764;SDS011;38650;44.536;18.664;2024-02-21T10:16:01;5.68;;;5.18;;
52764;SDS011;38650;44.536;18.664;2024-02-21T10:18:27;4.72;;;4.22;;
52764;SDS011;38650;44.536;18.664;2024-02-21T10:21:01;5.20;;;4.80;;
52764;SDS011;38650;44.536;18.664;2024-02-21T10:23:27;10.63;;;7.40;;
52764;SDS011;38650;44.536;18.664;2024-02-21T10:25:53;8.18;;;7.38;;
52764;SDS011;38650;44.536;18.664;2024-02-21T10:28:19;13.13;;;7.68;;
52764;SDS011;38650;44.536;18.664;2024-02-21T10:30:49;8.93;;;8.02;;
52764;SDS011;38650;44.536;18.664;2024-02-21T10:33:17;10.10;;;8.70;;
52764;SDS011;38650;44.536;18.664;2024-02-21T10:35:45;10.25;;;9.25;;
52764;SDS011;38650;44.536;18.664;2024-02-21T10:38:12;11.82;;;10.63;;
52764;SDS011;38650;44.536;18.664;2024-02-21T10:40:39;11.50;;;10.38;;
52764;SDS011;38650;44.536;18.664;2024-02-21T10:43:39;10.18;;;9.18;;
52764;SDS011;38650;44.536;18.664;2024-02-21T10:46:23;12.98;;;11.73;;
52764;SDS011;38650;44.536;18.664;2024-02-21T10:49:07;13.02;;;11.73;;
52764;SDS011;38650;44.536;18.664;2024-02-21T10:51:45;10.90;;;9.80;;
52764;SDS011;38650;44.536;18.664;2024-02-21T10:54:35;8.05;;;7.32;;
52764;SDS011;38650;44.536;18.664;2024-02-21T10:57:26;6.35;;;5.82;;
52764;SDS011;38650;44.536;18.664;2024-02-21T10:59:53;5.80;;;5.30;;
52764;SDS011;38650;44.536;18.664;2024-02-21T11:02:22;6.50;;;6.00;;
52764;SDS011;38650;44.536;18.664;2024-02-21T11:04:50;5.85;;;5.35;;
52764;SDS011;38650;44.536;18.664;2024-02-21T11:07:26;5.93;;;5.35;;
52764;SDS011;38650;44.536;18.664;2024-02-21T11:10:29;4.97;;;4.57;;
52764;SDS011;38650;44.536;18.664;2024-02-21T11:13:05;5.65;;;5.00;;
52764;SDS011;38650;44.536;18.664;2024-02-21T11:15:35;4.07;;;3.67;;
52764;SDS011;38650;44.536;18.664;2024-02-21T11:18:10;4.38;;;3.97;;
52764;SDS011;38650;44.536;18.664;2024-02-21T11:20:50;3.80;;;3.50;;
52764;SDS011;38650;44.536;18.664;2024-02-21T11:23:24;3.83;;;3.40;;
52764;SDS011;38650;44.536;18.664;2024-02-21T11:25:52;6.00;;;5.50;;
52764;SDS011;38650;44.536;18.664;2024-02-21T11:28:28;6.28;;;5.50;;
52764;SDS011;38650;44.536;18.664;2024-02-21T11:31:04;5.22;;;4.80;;
52764;SDS011;38650;44.536;18.664;2024-02-21T11:33:47;5.93;;;5.45;;
52764;SDS011;38650;44.536;18.664;2024-02-21T11:36:26;7.00;;;6.40;;
52764;SDS011;38650;44.536;18.664;2024-02-21T11:38:52;5.95;;;5.35;;
52764;SDS011;38650;44.536;18.664;2024-02-21T11:41:18;5.85;;;4.75;;
52764;SDS011;38650;44.536;18.664;2024-02-21T11:43:46;4.70;;;4.30;;
52764;SDS011;38650;44.536;18.664;2024-02-21T11:46:14;4.25;;;3.88;;
52764;SDS011;38650;44.536;18.664;2024-02-21T11:48:40;5.28;;;4.55;;
52764;SDS011;38650;44.536;18.664;2024-02-21T11:51:09;3.38;;;3.08;;
52764;SDS011;38650;44.536;18.664;2024-02-21T11:53:35;2.78;;;2.35;;
52764;SDS011;38650;44.536;18.664;2024-02-21T11:56:00;3.75;;;2.67;;
52764;SDS011;38650;44.536;18.664;2024-02-21T11:58:26;4.03;;;3.20;;
52764;SDS011;38650;44.536;18.664;2024-02-21T12:00:52;3.15;;;2.60;;
52764;SDS011;38650;44.536;18.664;2024-02-21T12:03:18;2.75;;;2.42;;
52764;SDS011;38650;44.536;18.664;2024-02-21T12:05:46;4.28;;;3.88;;
52764;SDS011;38650;44.536;18.664;2024-02-21T12:08:12;4.03;;;3.70;;
52764;SDS011;38650;44.536;18.664;2024-02-21T12:10:44;3.55;;;3.25;;
52764;SDS011;38650;44.536;18.664;2024-02-21T12:13:16;3.63;;;3.30;;
52764;SDS011;38650;44.536;18.664;2024-02-21T12:15:42;2.67;;;2.42;;
52764;SDS011;38650;44.536;18.664;2024-02-21T12:18:14;2.33;;;2.00;;
52764;SDS011;38650;44.536;18.664;2024-02-21T12:20:40;2.25;;;2.05;;
52764;SDS011;38650;44.536;18.664;2024-02-21T12:23:09;2.22;;;2.00;;
52764;SDS011;38650;44.536;18.664;2024-02-21T12:25:35;3.50;;;2.20;;
52764;SDS011;38650;44.536;18.664;2024-02-21T12:28:01;2.35;;;1.98;;
52764;SDS011;38650;44.536;18.664;2024-02-21T12:30:28;3.00;;;2.80;;
52764;SDS011;38650;44.536;18.664;2024-02-21T12:32:55;3.78;;;3.22;;
52764;SDS011;38650;44.536;18.664;2024-02-21T12:35:23;3.05;;;2.85;;
52764;SDS011;38650;44.536;18.664;2024-02-21T12:37:48;2.95;;;2.70;;
52764;SDS011;38650;44.536;18.664;2024-02-21T12:40:14;2.90;;;2.60;;
52764;SDS011;38650;44.536;18.664;2024-02-21T12:42:40;3.70;;;3.28;;
52764;SDS011;38650;44.536;18.664;2024-02-21T12:45:06;4.60;;;3.70;;
52764;SDS011;38650;44.536;18.664;2024-02-21T12:47:32;3.33;;;3.03;;
52764;SDS011;38650;44.536;18.664;2024-02-21T12:49:58;2.85;;;2.60;;
52764;SDS011;38650;44.536;18.664;2024-02-21T12:52:24;2.85;;;2.55;;
52764;SDS011;38650;44.536;18.664;2024-02-21T12:54:50;3.13;;;2.63;;
52764;SDS011;38650;44.536;18.664;2024-02-21T12:57:16;2.38;;;2.10;;
52764;SDS011;38650;44.536;18.664;2024-02-21T12:59:42;3.20;;;2.83;;
52764;SDS011;38650;44.536;18.664;2024-02-21T13:02:08;2.60;;;2.40;;
52764;SDS011;38650;44.536;18.664;2024-02-21T13:04:33;4.50;;;2.88;;
52764;SDS011;38650;44.536;18.664;2024-02-21T13:06:59;3.13;;;2.65;;
52764;SDS011;38650;44.536;18.664;2024-02-21T13:09:25;4.00;;;2.72;;
52764;SDS011;38650;44.536;18.664;2024-02-21T13:11:51;3.78;;;2.60;;
52764;SDS011;38650;44.536;18.664;2024-02-21T13:14:16;3.10;;;2.75;;
52764;SDS011;38650;44.536;18.664;2024-02-21T13:16:42;4.00;;;2.40;;
52764;SDS011;38650;44.536;18.664;2024-02-21T13:19:08;2.08;;;1.88;;
52764;SDS011;38650;44.536;18.664;2024-02-21T13:21:34;2.72;;;1.70;;
52764;SDS011;38650;44.536;18.664;2024-02-21T13:24:00;1.63;;;1.52;;
52764;SDS011;38650;44.536;18.664;2024-02-21T13:26:26;1.65;;;1.40;;
52764;SDS011;38650;44.536;18.664;2024-02-21T13:28:52;1.33;;;1.10;;
52764;SDS011;38650;44.536;18.664;2024-02-21T13:31:18;3.17;;;1.80;;
52764;SDS011;38650;44.536;18.664;2024-02-21T13:33:44;2.58;;;1.52;;
52764;SDS011;38650;44.536;18.664;2024-02-21T13:36:10;1.40;;;1.13;;
52764;SDS011;38650;44.536;18.664;2024-02-21T13:38:36;1.55;;;1.20;;
52764;SDS011;38650;44.536;18.664;2024-02-21T13:41:03;1.90;;;1.33;;
52764;SDS011;38650;44.536;18.664;2024-02-21T13:43:30;2.30;;;1.65;;
52764;SDS011;38650;44.536;18.664;2024-02-21T13:45:59;1.60;;;1.33;;
52764;SDS011;38650;44.536;18.664;2024-02-21T13:48:30;1.65;;;1.40;;
52764;SDS011;38650;44.536;18.664;2024-02-21T13:50:56;2.47;;;1.60;;
52764;SDS011;38650;44.536;18.664;2024-02-21T13:53:22;1.70;;;1.60;;
52764;SDS011;38650;44.536;18.664;2024-02-21T13:55:48;2.42;;;1.40;;
52764;SDS011;38650;44.536;18.664;2024-02-21T13:58:15;4.32;;;1.83;;
52764;SDS011;38650;44.536;18.664;2024-02-21T14:00:41;2.35;;;1.60;;
52764;SDS011;38650;44.536;18.664;2024-02-21T14:03:07;1.65;;;1.48;;
52764;SDS011;38650;44.536;18.664;2024-02-21T14:05:33;1.90;;;1.38;;
52764;SDS011;38650;44.536;18.664;2024-02-21T14:07:58;2.03;;;1.70;;
52764;SDS011;38650;44.536;18.664;2024-02-21T14:10:24;2.88;;;1.77;;
52764;SDS011;38650;44.536;18.664;2024-02-21T14:12:50;1.65;;;1.35;;
52764;SDS011;38650;44.536;18.664;2024-02-21T14:15:15;3.13;;;1.67;;
52764;SDS011;38650;44.536;18.664;2024-02-21T14:17:41;2.13;;;1.58;;